createdAt,value
2019-01-18T08:46:09.033Z,1.00
2019-01-18T09:06:03.073Z,1.60
2019-01-18T09:41:33.463Z,1.10
2019-01-18T09:44:58.329Z,1.00
2019-01-18T09:48:34.299Z,1.10
2019-01-18T10:00:08.313Z,1.90
2019-01-18T10:03:07.451Z,2.60
2019-01-18T10:12:33.436Z,7.80
2019-01-18T10:15:03.919Z,8.30
2019-01-18T11:11:09.176Z,8.00
2019-01-18T11:13:39.605Z,8.30
2019-01-18T11:16:10.108Z,7.80
2019-01-18T11:18:40.613Z,7.70
2019-01-18T11:21:15.964Z,6.20
2019-01-18T12:52:56.153Z,1.10
2019-01-18T12:56:49.113Z,1.00
2019-01-18T13:02:11.290Z,0.70
2019-01-18T13:27:06.552Z,0.90
2019-01-18T17:24:27.439Z,-1.90
2019-01-18T17:29:27.636Z,-1.90
2019-01-18T17:34:28.735Z,-2.00
2019-01-18T17:40:02.589Z,-2.00
2019-01-18T17:46:15.046Z,-2.10
2019-01-18T17:49:27.839Z,-2.10
2019-01-18T17:52:46.015Z,-2.10
2019-01-18T18:05:33.752Z,-2.10
2019-01-18T18:08:34.449Z,-2.20
2019-01-18T18:11:38.268Z,-2.10
2019-01-18T18:14:49.591Z,-2.10
2019-01-18T18:18:03.236Z,-2.20
2019-01-18T18:21:21.521Z,-2.20
2019-01-18T18:27:03.819Z,-2.20
2019-01-18T18:32:59.936Z,-2.20
2019-01-18T18:36:02.675Z,-2.10
2019-01-18T18:39:27.040Z,-2.00
2019-01-18T18:42:28.470Z,-2.00
2019-01-18T18:45:50.978Z,-2.10
2019-01-18T18:49:08.267Z,-2.00
2019-01-18T18:52:26.616Z,-1.90
2019-01-18T18:55:33.409Z,-1.90
2019-01-18T18:58:40.631Z,-1.90
2019-01-18T19:01:40.524Z,-1.80
2019-01-18T19:04:51.723Z,-1.70
2019-01-18T19:07:57.497Z,-1.70
2019-01-18T19:10:58.263Z,-1.80
2019-01-18T19:14:10.953Z,-1.80
2019-01-18T19:17:06.018Z,-1.80
2019-01-18T19:20:10.599Z,-1.80
2019-01-18T19:26:00.432Z,-1.90
2019-01-18T19:29:18.025Z,-1.80
2019-01-18T19:32:11.738Z,-1.70
2019-01-18T19:38:02.472Z,-1.50
2019-01-18T19:41:07.012Z,-1.30
2019-01-18T19:44:03.791Z,-1.20
2019-01-18T19:47:12.239Z,-1.20
2019-01-18T19:50:18.108Z,-1.10
2019-01-18T19:56:03.271Z,-1.10
2019-01-18T19:59:30.322Z,-1.00
2019-01-18T20:02:41.163Z,-1.00
2019-01-18T20:06:01.552Z,-1.00
2019-01-18T20:09:05.361Z,-0.90
2019-01-18T20:14:53.679Z,-0.90
2019-01-18T20:18:05.056Z,-0.90
2019-01-18T20:20:59.799Z,-0.90
2019-01-18T20:23:53.046Z,-0.80
2019-01-18T20:26:58.703Z,-0.80
2019-01-18T20:30:05.935Z,-0.80
2019-01-18T20:33:06.367Z,-0.80
2019-01-18T20:36:11.065Z,-0.80
2019-01-18T20:39:19.546Z,-0.70
2019-01-18T20:42:16.528Z,-0.80
2019-01-18T20:48:05.368Z,-0.80
2019-01-18T20:53:49.280Z,-1.10
2019-01-18T20:56:49.335Z,-1.20
2019-01-18T20:59:47.864Z,-1.40
2019-01-18T21:03:08.582Z,-1.50
2019-01-18T21:06:08.277Z,-1.60
2019-01-18T21:08:52.768Z,-1.60
2019-01-18T21:11:38.459Z,-1.60
2019-01-18T21:14:49.701Z,-1.70
2019-01-18T21:18:21.929Z,-1.80
2019-01-18T21:21:44.643Z,-1.90
2019-01-18T21:24:59.043Z,-2.00
2019-01-18T21:28:18.871Z,-2.10
2019-01-18T21:31:39.121Z,-2.10
2019-01-18T21:34:18.900Z,-2.20
2019-01-18T21:37:51.359Z,-2.20
2019-01-18T21:40:34.303Z,-2.20
2019-01-18T21:43:34.115Z,-2.20
2019-01-18T21:46:41.782Z,-2.20
2019-01-18T21:49:55.668Z,-2.20
2019-01-18T21:52:57.119Z,-2.20
2019-01-18T21:56:03.675Z,-2.20
2019-01-18T21:59:04.518Z,-2.20
2019-01-18T22:02:03.346Z,-2.20
2019-01-18T22:05:07.063Z,-2.20
2019-01-18T22:08:15.635Z,-2.20
2019-01-18T22:10:54.935Z,-2.20
2019-01-18T22:14:06.058Z,-2.10
2019-01-18T22:17:20.548Z,-2.10
2019-01-18T22:20:35.113Z,-2.10
2019-01-18T22:23:33.095Z,-2.20
2019-01-18T22:26:35.907Z,-2.30
2019-01-18T22:29:52.988Z,-2.30
2019-01-18T22:33:18.999Z,-2.30
2019-01-18T22:36:18.573Z,-2.40
2019-01-18T22:39:34.096Z,-2.40
2019-01-18T22:42:28.585Z,-2.40
2019-01-18T22:45:13.746Z,-2.40
2019-01-18T22:48:18.871Z,-2.40
2019-01-18T22:51:24.392Z,-2.30
2019-01-18T22:54:40.557Z,-2.20
2019-01-18T22:57:32.818Z,-2.00
2019-01-18T23:01:10.752Z,-2.00
2019-01-18T23:04:06.042Z,-1.90
2019-01-18T23:07:18.739Z,-1.90
2019-01-18T23:10:13.203Z,-1.90
2019-01-18T23:12:53.619Z,-1.80
2019-01-18T23:16:03.340Z,-1.70
2019-01-18T23:18:50.571Z,-1.60
2019-01-18T23:21:55.148Z,-1.60
2019-01-18T23:24:40.796Z,-1.40
2019-01-18T23:28:04.053Z,-1.50
2019-01-18T23:31:01.867Z,-1.40
2019-01-18T23:34:25.160Z,-1.30
2019-01-18T23:37:19.983Z,-1.30
2019-01-18T23:40:46.449Z,-1.20
2019-01-18T23:43:41.755Z,-1.20
2019-01-18T23:46:48.991Z,-1.20
2019-01-18T23:50:05.935Z,-1.20
2019-01-18T23:53:05.415Z,-1.20
2019-01-18T23:56:10.355Z,-1.20
2019-01-18T23:59:04.416Z,-1.10
